Granite Springs, New York
Current Conditions -  °F | °C
As of 5:53 PM on Wednesday 22 Oct 2014 (Local Time) from KDXR Reporting Station
Overcast Overcast  
Wind Chill: 52°   Ceiling: 1700
Heat Index: 52°   Visibility: 9mi
Dew Point: 46°   Wind: 16mph
Humidity: 80%   Direction: 30°NNE
Pressure: 29.86"   Gusts: 25mph
Location:  41.31°N, 73.76°W
Report Text: KDXR 222153Z 03014G22KT 9SM OVC017 11/08 A2986 RMK AO2 RAE25 SLP110 P0000 T01110078
Loading
Personal Weather Stations






























Interactive Weather Map
Tropical Storm Tracking
New forecast layout! Learn more

10-Day Weather Forecast

Advertisements
Track Severe Weather on mobile